Livermore, Iowa
Current Conditions -  °F | °C
As of 12:15 PM on Sunday 25 Jan 2015 (Local Time) from KAXA Reporting Station
Overcast Overcast  
Wind Chill: 20°   Ceiling: 1200
Heat Index: 30°   Visibility: 10mi
Dew Point: 30°   Wind: 13mph
Humidity: 100%   Direction: 30°NNE
Pressure: 29.97"   Gusts: NA
Location:  42.87°N, 94.19°W
Report Text: KAXA 251815Z AUTO 03011KT 10SM BKN012 OVC017 M01/M01 A2997 RMK AO2
Loading
Personal Weather Stations






























Interactive Weather Map New forecast layout! Learn more

10-Day Weather Forecast

Advertisements
Track Severe Weather on mobile